Time;durP1;ratioP1;P1;durP2;ratioP2;P2;SDS_P1;SDS_P2;PMS_P1;PMS_P2;Temp;Humidity;BMP_temperature;BMP_pressure;BME280_temperature;BME280_humidity;BME280_pressure;Samples;Min_cycle;Max_cycle;Signal;HPM_P1;HPM_P2
2022/08/06 00:01:14;;;;;;;3.67;2.17;;;12.50;99.90;;;;;;5071317;28;20412;-83
2022/08/06 00:03:58;;;;;;;7.22;2.17;;;11.70;99.90;;;;;;5045637;28;20048;-86
2022/08/06 00:06:43;;;;;;;4.15;1.92;;;12.40;99.90;;;;;;5047965;28;20047;-83
2022/08/06 00:09:30;;;;;;;9.50;2.17;;;12.30;99.90;;;;;;5057501;28;20539;-83
2022/08/06 00:12:14;;;;;;;5.90;2.08;;;12.30;99.90;;;;;;5072204;28;20055;-83
2022/08/06 00:15:00;;;;;;;5.40;2.38;;;12.30;99.90;;;;;;5072318;28;20046;-84
2022/08/06 00:17:45;;;;;;;4.55;1.90;;;12.30;99.90;;;;;;5057404;28;20123;-83
2022/08/06 00:20:29;;;;;;;8.40;2.22;;;12.30;99.90;;;;;;5061463;28;20082;-83
2022/08/06 00:23:13;;;;;;;5.75;1.70;;;12.20;99.90;;;;;;5055517;28;20036;-83
2022/08/06 00:25:57;;;;;;;6.53;2.33;;;12.20;99.90;;;;;;5072177;28;20047;-83
2022/08/06 00:28:41;;;;;;;9.65;1.90;;;12.20;99.90;;;;;;5071535;28;20081;-83
2022/08/06 00:31:26;;;;;;;6.70;1.92;;;12.20;99.90;;;;;;5057095;28;20048;-88
2022/08/06 00:34:10;;;;;;;3.40;1.90;;;12.10;99.90;;;;;;5075083;28;20116;-83
2022/08/06 00:36:55;;;;;;;5.75;2.00;;;12.10;99.90;;;;;;5075868;28;20116;-83
2022/08/06 00:39:39;;;;;;;6.38;2.10;;;12.10;99.90;;;;;;5075393;28;20047;-83
2022/08/06 00:42:24;;;;;;;3.42;1.80;;;12.00;99.90;;;;;;5075993;28;20051;-83
2022/08/06 00:45:08;;;;;;;5.65;1.83;;;12.00;99.90;;;;;;5074638;28;20040;-82
2022/08/06 00:47:53;;;;;;;6.22;2.38;;;12.00;99.90;;;;;;5075432;28;20043;-83
2022/08/06 00:50:37;;;;;;;10.57;2.28;;;11.90;99.90;;;;;;5066124;28;20080;-83
2022/08/06 00:53:21;;;;;;;5.35;1.90;;;11.90;99.90;;;;;;5058781;28;20109;-85
2022/08/06 00:56:06;;;;;;;4.70;2.30;;;11.90;99.90;;;;;;5060509;28;20044;-83
2022/08/06 00:58:50;;;;;;;4.82;2.35;;;11.80;99.90;;;;;;5068540;28;20051;-82
2022/08/06 01:01:35;;;;;;;6.60;2.92;;;11.80;99.90;;;;;;5054976;28;20101;-83
2022/08/06 01:04:19;;;;;;;5.00;2.42;;;11.80;99.90;;;;;;5064844;28;20051;-82
2022/08/06 01:07:03;;;;;;;5.75;2.15;;;11.70;99.90;;;;;;5059504;28;20035;-83
2022/08/06 01:09:49;;;;;;;6.45;2.40;;;11.70;99.90;;;;;;5073670;28;20055;-83
2022/08/06 01:12:33;;;;;;;5.35;2.10;;;11.70;99.90;;;;;;5049842;28;20039;-83
2022/08/06 01:15:17;;;;;;;3.85;2.10;;;11.70;99.90;;;;;;5075097;28;20393;-83
2022/08/06 01:18:09;;;;;;;8.52;2.33;;;11.60;99.90;;;;;;5074957;28;20043;-82
2022/08/06 01:21:06;;;;;;;4.63;2.35;;;11.60;99.90;;;;;;5074527;28;20090;-83
2022/08/06 01:24:12;;;;;;;5.40;1.80;;;11.60;99.90;;;;;;5074348;28;20035;-82
2022/08/06 01:27:15;;;;;;;5.57;2.20;;;11.60;99.90;;;;;;5074475;28;20035;-83
2022/08/06 01:30:05;;;;;;;5.28;2.20;;;11.60;99.90;;;;;;5055775;28;20043;-82
2022/08/06 01:33:09;;;;;;;6.20;2.53;;;11.50;99.90;;;;;;5069225;28;20049;-83
2022/08/06 01:36:07;;;;;;;4.03;2.40;;;11.50;99.90;;;;;;5050698;28;20091;-83
2022/08/06 01:38:54;;;;;;;4.45;2.30;;;11.40;99.90;;;;;;5054104;28;20094;-84
2022/08/06 01:41:46;;;;;;;4.75;2.10;;;11.40;99.90;;;;;;5054210;28;20071;-84
2022/08/06 01:44:34;;;;;;;5.00;2.28;;;11.30;99.90;;;;;;5054156;28;20035;-85
2022/08/06 01:47:21;;;;;;;3.50;1.95;;;11.30;99.90;;;;;;5041635;28;20036;-82
2022/08/06 01:50:08;;;;;;;4.28;2.10;;;11.20;99.90;;;;;;5053400;28;20460;-83
2022/08/06 01:52:54;;;;;;;4.45;2.00;;;11.20;99.90;;;;;;5054118;28;20184;-82
2022/08/06 01:55:44;;;;;;;4.70;2.10;;;11.20;99.90;;;;;;5053868;28;20116;-84
2022/08/06 01:58:36;;;;;;;5.38;2.10;;;11.10;99.90;;;;;;5054265;28;20436;-83
2022/08/06 02:01:23;;;;;;;4.97;2.15;;;11.10;99.90;;;;;;5054378;28;20035;-82
2022/08/06 02:04:10;;;;;;;4.57;2.13;;;11.10;99.90;;;;;;5054161;28;20040;-82
2022/08/06 02:06:56;;;;;;;4.43;2.10;;;11.00;99.90;;;;;;5053694;28;20178;-82
2022/08/06 02:09:44;;;;;;;5.15;2.42;;;11.00;99.90;;;;;;5040685;28;20036;-88
2022/08/06 02:12:29;;;;;;;4.80;2.03;;;10.90;99.90;;;;;;5054074;28;20124;-83
2022/08/06 02:15:19;;;;;;;5.32;2.47;;;10.90;99.90;;;;;;5054344;28;20044;-82
2022/08/06 02:18:08;;;;;;;5.30;2.20;;;10.90;99.90;;;;;;5053649;28;20067;-82
2022/08/06 02:20:54;;;;;;;7.20;2.70;;;10.80;99.90;;;;;;5052331;28;20043;-83
2022/08/06 02:23:39;;;;;;;4.55;2.60;;;10.80;99.90;;;;;;5054166;28;20040;-82
2022/08/06 02:26:26;;;;;;;6.88;2.38;;;10.80;99.90;;;;;;5052792;28;20071;-82
2022/08/06 02:29:16;;;;;;;4.57;2.45;;;10.80;99.90;;;;;;5039246;28;20037;-82
2022/08/06 02:32:00;;;;;;;7.05;3.00;;;10.80;99.90;;;;;;5043333;28;20048;-82
2022/08/06 02:34:45;;;;;;;4.55;2.60;;;10.80;99.90;;;;;;5052260;28;20040;-84
2022/08/06 02:37:58;;;;;;;4.95;2.83;;;10.70;99.90;;;;;;5067116;28;20043;-82
2022/08/06 02:40:46;;;;;;;5.32;2.40;;;10.80;99.90;;;;;;5072592;28;20550;-87
2022/08/06 02:43:37;;;;;;;6.85;3.03;;;10.70;99.90;;;;;;5047776;28;20078;-82
2022/08/06 02:46:37;;;;;;;7.38;3.28;;;10.70;99.90;;;;;;5048691;28;20161;-82
2022/08/06 02:49:25;;;;;;;9.80;2.97;;;10.70;99.90;;;;;;5053494;28;20040;-82
2022/08/06 02:52:26;;;;;;;5.45;3.47;;;10.70;99.90;;;;;;5039982;28;20056;-82
2022/08/06 02:55:14;;;;;;;13.43;4.15;;;10.70;99.90;;;;;;5052340;28;20393;-82
2022/08/06 02:58:31;;;;;;;6.97;4.10;;;10.60;99.90;;;;;;5053068;28;20495;-82
2022/08/06 03:01:21;;;;;;;6.32;4.20;;;10.70;99.90;;;;;;5052223;28;20075;-82
2022/08/06 03:04:08;;;;;;;5.40;3.88;;;10.60;99.90;;;;;;5052809;28;20086;-82
2022/08/06 03:06:54;;;;;;;6.25;4.03;;;10.60;99.90;;;;;;5052523;28;20066;-83
2022/08/06 03:09:45;;;;;;;8.00;4.80;;;10.60;99.90;;;;;;5052206;28;20031;-83
2022/08/06 03:12:30;;;;;;;4.90;3.55;;;10.60;99.90;;;;;;5039440;28;20044;-83
2022/08/06 03:15:18;;;;;;;5.57;3.92;;;10.60;99.90;;;;;;5052010;28;20044;-82
2022/08/06 03:18:04;;;;;;;6.20;3.85;;;10.60;99.90;;;;;;5052463;28;20040;-83
2022/08/06 03:20:50;;;;;;;7.00;3.65;;;10.60;99.90;;;;;;5052428;28;20047;-88
2022/08/06 03:23:36;;;;;;;7.28;4.10;;;10.60;99.90;;;;;;5052793;28;20032;-83
2022/08/06 03:26:21;;;;;;;8.07;4.32;;;10.60;99.90;;;;;;5051993;28;20048;-82
2022/08/06 03:29:07;;;;;;;6.63;4.15;;;10.60;99.90;;;;;;5052061;28;20043;-82
2022/08/06 03:31:52;;;;;;;6.38;3.67;;;10.60;99.90;;;;;;5052165;28;20047;-88
2022/08/06 03:34:37;;;;;;;7.00;3.72;;;10.60;99.90;;;;;;5051732;28;20401;-83
2022/08/06 03:37:23;;;;;;;6.13;4.53;;;10.60;99.90;;;;;;5051456;28;20044;-82
2022/08/06 03:40:10;;;;;;;6.95;4.35;;;10.60;99.90;;;;;;5051197;28;20452;-83
2022/08/06 03:42:54;;;;;;;7.63;3.60;;;10.60;99.90;;;;;;5051793;28;20599;-84
2022/08/06 03:45:43;;;;;;;5.75;3.47;;;10.50;99.90;;;;;;5052606;28;20043;-82
2022/08/06 03:48:36;;;;;;;7.15;3.78;;;10.50;99.90;;;;;;5038420;28;20031;-82
2022/08/06 03:51:23;;;;;;;5.47;3.40;;;10.50;99.90;;;;;;5038498;28;20103;-87
2022/08/06 03:54:08;;;;;;;6.47;3.75;;;10.50;99.90;;;;;;5051042;28;20171;-83
2022/08/06 03:56:56;;;;;;;5.15;3.40;;;10.50;99.90;;;;;;5051413;28;20436;-83
2022/08/06 03:59:43;;;;;;;6.65;3.33;;;10.40;99.90;;;;;;5051240;28;20035;-83
2022/08/06 04:02:31;;;;;;;5.15;2.85;;;10.50;99.90;;;;;;5052468;28;20448;-82
2022/08/06 04:05:27;;;;;;;5.05;2.88;;;10.40;99.90;;;;;;5051823;28;20063;-82
2022/08/06 04:08:12;;;;;;;5.82;3.30;;;10.40;99.90;;;;;;5039209;28;20393;-82
2022/08/06 04:10:58;;;;;;;6.07;3.38;;;10.40;99.90;;;;;;5038189;28;20531;-87
2022/08/06 04:13:43;;;;;;;7.15;3.03;;;10.40;99.90;;;;;;5038082;28;20045;-83
2022/08/06 04:16:27;;;;;;;5.93;3.00;;;10.40;99.90;;;;;;5052172;28;20106;-82
2022/08/06 04:19:13;;;;;;;6.93;3.10;;;10.50;99.90;;;;;;5046093;28;20120;-83
2022/08/06 04:21:57;;;;;;;5.38;3.17;;;10.50;99.90;;;;;;5046022;28;20083;-87
2022/08/06 04:24:41;;;;;;;5.50;3.63;;;10.40;99.90;;;;;;5052112;28;20504;-82
2022/08/06 04:27:27;;;;;;;5.28;2.90;;;10.40;99.90;;;;;;5051949;28;20063;-83
2022/08/06 04:30:12;;;;;;;5.25;3.10;;;10.40;99.90;;;;;;5051542;28;20397;-83
2022/08/06 04:32:57;;;;;;;4.18;3.30;;;10.40;99.90;;;;;;5036987;28;20051;-82
2022/08/06 04:35:42;;;;;;;6.30;3.08;;;10.50;99.90;;;;;;5049936;28;20114;-83
2022/08/06 04:38:26;;;;;;;4.70;2.80;;;10.50;99.90;;;;;;5040787;28;20048;-82
2022/08/06 04:41:12;;;;;;;10.35;3.33;;;10.50;99.90;;;;;;5051231;28;20103;-82
2022/08/06 04:43:56;;;;;;;6.32;2.88;;;10.50;99.90;;;;;;5051894;28;20051;-82
2022/08/06 04:46:42;;;;;;;5.50;2.92;;;10.60;99.90;;;;;;5050747;28;20393;-83
2022/08/06 04:49:28;;;;;;;3.53;2.53;;;10.60;99.90;;;;;;5039363;28;20045;-82
2022/08/06 04:52:26;;;;;;;4.93;2.60;;;10.70;99.90;;;;;;5038594;28;20052;-82
2022/08/06 04:55:11;;;;;;;4.95;2.60;;;10.70;99.90;;;;;;5033901;28;20107;-82
2022/08/06 04:57:55;;;;;;;4.40;2.38;;;10.80;99.90;;;;;;5044160;28;20056;-82
2022/08/06 05:00:41;;;;;;;4.13;2.58;;;10.80;99.90;;;;;;5038665;28;20182;-82
2022/08/06 05:03:25;;;;;;;5.93;2.47;;;10.90;99.90;;;;;;5050271;28;20425;-82
2022/08/06 05:06:23;;;;;;;4.95;2.13;;;11.00;99.90;;;;;;5051297;28;20111;-82
2022/08/06 05:09:11;;;;;;;3.58;1.90;;;11.00;99.90;;;;;;5051310;28;20102;-83
2022/08/06 05:12:11;;;;;;;4.03;2.35;;;11.10;99.90;;;;;;5051192;28;20076;-82
2022/08/06 05:15:10;;;;;;;4.55;2.45;;;11.20;99.90;;;;;;5051563;28;20124;-82
2022/08/06 05:18:21;;;;;;;3.92;1.95;;;11.20;99.90;;;;;;5052230;28;20078;-82
2022/08/06 05:21:08;;;;;;;4.78;2.17;;;11.30;99.90;;;;;;5054968;28;20043;-88
2022/08/06 05:23:53;;;;;;;8.43;2.53;;;11.30;99.90;;;;;;5054991;28;20118;-82
2022/08/06 05:26:38;;;;;;;3.70;2.08;;;11.40;99.90;;;;;;5068413;28;20567;-82
2022/08/06 05:29:22;;;;;;;3.38;2.13;;;11.50;99.90;;;;;;5048443;28;20084;-82
2022/08/06 05:32:06;;;;;;;3.80;2.00;;;11.60;99.90;;;;;;5034895;28;20092;-87
2022/08/06 05:34:51;;;;;;;4.30;2.20;;;11.70;99.90;;;;;;5043059;28;20040;-82
2022/08/06 05:37:35;;;;;;;4.22;2.70;;;11.80;99.90;;;;;;5054820;28;20040;-81
2022/08/06 05:40:19;;;;;;;3.70;2.00;;;12.00;99.90;;;;;;5053165;28;20487;-79
2022/08/06 05:43:03;;;;;;;5.03;2.10;;;12.10;99.90;;;;;;5054319;28;20044;-81
2022/08/06 05:45:50;;;;;;;3.83;1.70;;;12.20;99.90;;;;;;5053652;28;20130;-81
2022/08/06 05:48:43;;;;;;;4.07;1.70;;;12.40;99.90;;;;;;5054515;28;20487;-81
2022/08/06 05:51:47;;;;;;;2.67;1.35;;;12.50;99.90;;;;;;5053719;28;20120;-81
2022/08/06 05:54:55;;;;;;;;;;;12.70;99.90;;;;;;5054355;28;20082;-80
2022/08/06 05:57:49;;;;;;;2.60;1.27;;;12.90;99.90;;;;;;5054016;28;20406;-81
2022/08/06 06:00:35;;;;;;;2.83;1.20;;;13.00;99.90;;;;;;5053663;28;20047;-80
2022/08/06 06:03:23;;;;;;;7.32;1.45;;;13.20;99.90;;;;;;5053621;28;20052;-81
2022/08/06 06:06:08;;;;;;;3.88;1.30;;;13.40;99.90;;;;;;5054175;28;20040;-80
2022/08/06 06:08:53;;;;;;;2.88;1.42;;;13.60;99.90;;;;;;5053992;28;20055;-80
2022/08/06 06:11:37;;;;;;;3.63;1.13;;;13.80;99.90;;;;;;5053995;28;20060;-81
2022/08/06 06:14:27;;;;;;;3.17;1.20;;;14.00;99.90;;;;;;5053478;28;20067;-81
2022/08/06 06:17:17;;;;;;;3.80;1.00;;;14.10;99.90;;;;;;5053938;28;20496;-81
2022/08/06 06:20:16;;;;;;;6.28;1.10;;;14.30;99.90;;;;;;5053066;28;20036;-82
2022/08/06 06:23:13;;;;;;;3.85;1.08;;;14.50;99.90;;;;;;5052900;28;20040;-82
2022/08/06 06:26:16;;;;;;;3.55;1.10;;;14.70;99.90;;;;;;5052510;28;20109;-81
2022/08/06 06:29:24;;;;;;;2.25;0.90;;;15.00;99.90;;;;;;5053583;28;20051;-83
2022/08/06 06:32:29;;;;;;;1.65;0.82;;;15.10;99.90;;;;;;5053821;28;20048;-82
2022/08/06 06:35:33;;;;;;;6.57;1.15;;;15.20;99.90;;;;;;5052983;28;20040;-82
2022/08/06 06:38:28;;;;;;;2.35;0.82;;;15.30;99.90;;;;;;5053165;28;20055;-86
2022/08/06 06:41:21;;;;;;;2.70;1.08;;;15.40;99.90;;;;;;5052188;28;20055;-83
2022/08/06 06:44:33;;;;;;;2.53;0.95;;;15.50;99.90;;;;;;5053444;28;20035;-83
2022/08/06 06:47:31;;;;;;;4.18;1.05;;;15.60;99.90;;;;;;5053248;28;20040;-88
2022/08/06 06:50:21;;;;;;;2.63;0.90;;;15.70;99.90;;;;;;5053254;28;20098;-83
2022/08/06 06:53:08;;;;;;;4.03;1.00;;;15.80;99.90;;;;;;5052268;28;20086;-83
2022/08/06 06:55:56;;;;;;;1.63;0.90;;;15.90;99.90;;;;;;5053548;28;20116;-83
2022/08/06 06:58:48;;;;;;;4.82;1.08;;;16.10;99.90;;;;;;5052533;28;20535;-84
2022/08/06 07:01:32;;;;;;;2.08;0.73;;;16.20;99.90;;;;;;5052723;28;20500;-81
2022/08/06 07:04:18;;;;;;;5.75;1.10;;;16.30;99.90;;;;;;5040797;28;20098;-83
2022/08/06 07:07:04;;;;;;;1.80;1.08;;;16.40;99.90;;;;;;5051895;28;20077;-83
2022/08/06 07:09:50;;;;;;;2.65;0.80;;;16.60;99.90;;;;;;5052136;28;20116;-82
2022/08/06 07:12:35;;;;;;;4.90;1.00;;;16.70;99.90;;;;;;5039502;28;20039;-82
2022/08/06 07:15:24;;;;;;;2.65;1.00;;;16.80;99.90;;;;;;5052959;28;20409;-82
2022/08/06 07:18:09;;;;;;;5.93;0.90;;;17.00;99.90;;;;;;5053066;28;20464;-82
2022/08/06 07:20:55;;;;;;;3.63;1.42;;;17.10;99.90;;;;;;5051585;28;20117;-83
2022/08/06 07:23:39;;;;;;;4.38;1.10;;;17.20;99.90;;;;;;5038244;28;20103;-86
2022/08/06 07:26:25;;;;;;;4.30;1.10;;;17.50;99.90;;;;;;5051435;28;20040;-86
2022/08/06 07:29:10;;;;;;;2.88;1.00;;;18.30;99.90;;;;;;5052575;28;20103;-83
2022/08/06 07:31:55;;;;;;;4.47;0.93;;;19.10;99.90;;;;;;5051530;28;20098;-81
2022/08/06 07:34:41;;;;;;;3.53;1.00;;;19.40;99.90;;;;;;5052125;28;20075;-85
2022/08/06 07:37:27;;;;;;;3.95;0.98;;;19.40;99.90;;;;;;5052180;28;20048;-86
2022/08/06 07:40:20;;;;;;;3.72;1.20;;;19.40;99.90;;;;;;5052397;28;20405;-82
2022/08/06 07:43:12;;;;;;;3.58;0.98;;;19.30;99.90;;;;;;5052156;28;20060;-83
2022/08/06 07:45:59;;;;;;;3.70;1.13;;;19.30;99.90;;;;;;5051630;28;20544;-85
2022/08/06 07:48:52;;;;;;;2.00;0.82;;;19.30;99.90;;;;;;5029266;28;20041;-84
2022/08/06 07:51:39;;;;;;;5.40;1.05;;;19.40;99.90;;;;;;5051670;28;20500;-82
2022/08/06 07:54:29;;;;;;;3.97;1.00;;;19.60;99.90;;;;;;5052209;28;20032;-81
2022/08/06 07:57:14;;;;;;;1.67;0.80;;;19.90;99.90;;;;;;5051115;28;20496;-82
2022/08/06 07:59:59;;;;;;;3.70;1.35;;;20.30;99.90;;;;;;5052001;28;20056;-82
2022/08/06 08:06:17;;;;;;;2.10;0.85;;;20.50;99.90;;;;;;5051544;28;20062;-83
2022/08/06 08:09:01;;;;;;;3.45;1.00;;;20.70;99.50;;;;;;5050627;28;20412;-83
2022/08/06 08:11:46;;;;;;;3.63;1.00;;;20.60;97.80;;;;;;5045770;28;20059;-82
2022/08/06 08:14:31;;;;;;;4.20;0.90;;;20.70;99.00;;;;;;5050642;28;20446;-87
2022/08/06 08:17:15;;;;;;;3.95;1.00;;;20.80;97.60;;;;;;5051946;28;20067;-82
2022/08/06 08:20:08;;;;;;;2.83;1.15;;;20.70;96.00;;;;;;5043915;28;20083;-83
2022/08/06 08:22:52;;;;;;;4.07;1.02;;;20.80;95.70;;;;;;5032253;28;20044;-83
2022/08/06 08:25:36;;;;;;;3.53;1.00;;;20.90;96.60;;;;;;5050349;28;20040;-83
2022/08/06 08:28:20;;;;;;;2.63;0.95;;;21.20;96.00;;;;;;5051772;28;20090;-83
2022/08/06 08:31:06;;;;;;;1.90;0.82;;;21.50;94.70;;;;;;5050654;28;20500;-83
2022/08/06 08:33:50;;;;;;;2.60;1.00;;;21.70;94.40;;;;;;5045024;28;20124;-83
2022/08/06 08:36:34;;;;;;;4.68;1.25;;;21.70;94.00;;;;;;5050411;28;20120;-86
2022/08/06 08:39:19;;;;;;;1.65;0.80;;;21.60;93.60;;;;;;5051834;28;20401;-83
2022/08/06 08:42:10;;;;;;;4.55;1.20;;;21.20;92.80;;;;;;5050563;28;20103;-81
2022/08/06 08:44:56;;;;;;;3.78;1.60;;;20.70;93.10;;;;;;5051345;28;20028;-84
2022/08/06 08:47:46;;;;;;;3.45;1.30;;;20.40;93.60;;;;;;5051292;28;20122;-85
2022/08/06 08:50:30;;;;;;;3.28;1.10;;;20.30;93.40;;;;;;5051552;28;20057;-84
2022/08/06 08:53:25;;;;;;;6.70;1.55;;;20.30;93.30;;;;;;5052049;28;20095;-84
2022/08/06 08:56:11;;;;;;;3.53;1.80;;;20.60;93.50;;;;;;5055468;28;20115;-84
2022/08/06 08:58:55;;;;;;;4.93;1.88;;;20.80;93.10;;;;;;5054866;28;20039;-83
2022/08/06 09:01:40;;;;;;;4.50;1.77;;;20.90;92.70;;;;;;5053880;28;20075;-82
2022/08/06 09:04:25;;;;;;;4.65;1.90;;;20.80;93.30;;;;;;5054373;28;20083;-84
2022/08/06 09:07:10;;;;;;;4.40;1.88;;;20.80;93.40;;;;;;5055326;28;20083;-84
2022/08/06 09:09:56;;;;;;;3.88;1.67;;;20.80;93.80;;;;;;5032574;28;20126;-84
2022/08/06 09:12:41;;;;;;;2.72;2.00;;;21.00;93.00;;;;;;5060486;28;20458;-90
2022/08/06 09:15:25;;;;;;;4.97;2.05;;;21.10;92.30;;;;;;5068170;28;20072;-83
2022/08/06 09:18:09;;;;;;;2.75;1.48;;;21.30;91.50;;;;;;5055040;28;20067;-81
2022/08/06 09:20:53;;;;;;;4.25;1.67;;;21.60;91.80;;;;;;5053730;28;20137;-84
2022/08/06 09:23:39;;;;;;;2.85;1.65;;;21.90;91.20;;;;;;5054219;28;20039;-83
2022/08/06 09:26:24;;;;;;;2.60;1.70;;;21.90;88.30;;;;;;5043739;28;20036;-83
2022/08/06 09:29:21;;;;;;;4.53;1.42;;;21.90;89.10;;;;;;5054788;28;20103;-83
2022/08/06 09:32:06;;;;;;;3.83;1.73;;;22.00;87.70;;;;;;5054812;28;20048;-83
2022/08/06 09:34:51;;;;;;;3.63;1.65;;;22.20;88.10;;;;;;5055123;28;20043;-86
2022/08/06 09:37:35;;;;;;;2.22;1.30;;;22.00;88.10;;;;;;5054562;28;20485;-84
2022/08/06 09:40:19;;;;;;;3.33;1.92;;;21.70;86.00;;;;;;5039652;28;20099;-85
2022/08/06 09:43:04;;;;;;;3.63;1.70;;;21.40;86.50;;;;;;5051979;28;20044;-83
2022/08/06 09:45:48;;;;;;;4.93;1.65;;;21.00;88.30;;;;;;5052898;28;20036;-82
2022/08/06 09:48:33;;;;;;;6.03;1.70;;;20.90;89.20;;;;;;5050352;28;20083;-83
2022/08/06 09:51:22;;;;;;;3.53;1.60;;;20.70;90.60;;;;;;5053266;28;20075;-82
2022/08/06 09:54:09;;;;;;;3.55;1.52;;;20.60;91.60;;;;;;5054111;28;20486;-82
2022/08/06 09:56:58;;;;;;;3.25;1.30;;;20.60;92.70;;;;;;5053916;28;20059;-83
2022/08/06 09:59:47;;;;;;;3.03;1.60;;;20.50;93.40;;;;;;5054328;28;20082;-82
2022/08/06 10:02:33;;;;;;;4.10;1.48;;;20.60;93.90;;;;;;5054607;28;20047;-83
2022/08/06 10:05:19;;;;;;;3.58;1.35;;;20.80;93.50;;;;;;5054153;28;20078;-83
2022/08/06 10:08:16;;;;;;;5.00;1.35;;;21.00;93.20;;;;;;5053546;28;20044;-84
2022/08/06 10:11:02;;;;;;;3.05;1.25;;;21.10;92.90;;;;;;5053550;28;20103;-84
2022/08/06 10:13:47;;;;;;;4.13;1.55;;;21.10;93.00;;;;;;5025445;28;20055;-86
2022/08/06 10:16:32;;;;;;;2.80;1.25;;;21.50;92.90;;;;;;5054234;28;20044;-84
2022/08/06 10:19:17;;;;;;;4.63;1.60;;;22.00;92.80;;;;;;5054376;28;20044;-85
2022/08/06 10:22:11;;;;;;;4.15;1.33;;;22.60;91.60;;;;;;5038646;28;20075;-83
2022/08/06 10:24:59;;;;;;;4.78;1.55;;;23.10;87.80;;;;;;5052616;28;20037;-84
2022/08/06 10:27:44;;;;;;;4.72;1.50;;;23.30;83.90;;;;;;5042140;28;20083;-83
2022/08/06 10:30:28;;;;;;;3.10;1.40;;;23.30;83.50;;;;;;5053772;28;20114;-83
2022/08/06 10:33:13;;;;;;;4.18;1.27;;;23.10;83.00;;;;;;5052507;28;20126;-82
2022/08/06 10:36:04;;;;;;;3.88;1.63;;;22.80;83.20;;;;;;5052140;28;20044;-84
2022/08/06 10:38:51;;;;;;;3.80;1.30;;;22.40;82.90;;;;;;5053742;28;20094;-85
2022/08/06 10:41:38;;;;;;;4.90;1.50;;;21.90;86.90;;;;;;5053705;28;20047;-85
2022/08/06 10:44:24;;;;;;;3.50;1.70;;;21.60;86.50;;;;;;5052948;28;20539;-86
2022/08/06 10:47:08;;;;;;;4.35;1.58;;;21.40;88.00;;;;;;5040664;28;20047;-86
2022/08/06 10:49:53;;;;;;;6.30;2.45;;;21.30;87.90;;;;;;5053193;28;20048;-89
2022/08/06 10:52:40;;;;;;;4.78;1.50;;;21.20;88.60;;;;;;5053668;28;20052;-86
2022/08/06 10:55:24;;;;;;;3.65;1.50;;;21.10;90.00;;;;;;5053491;28;20432;-85
2022/08/06 10:58:08;;;;;;;2.78;1.60;;;21.10;89.50;;;;;;5052087;28;20502;-85
2022/08/06 11:00:53;;;;;;;2.60;1.88;;;21.10;89.50;;;;;;5038212;28;20136;-89
2022/08/06 11:03:52;;;;;;;3.67;1.67;;;21.10;87.00;;;;;;5053307;28;20031;-86
2022/08/06 11:07:07;;;;;;;2.65;1.63;;;21.10;85.40;;;;;;5053322;28;20113;-85
2022/08/06 11:09:57;;;;;;;3.65;1.80;;;21.10;84.80;;;;;;5051692;28;20039;-86
2022/08/06 11:12:54;;;;;;;3.50;1.48;;;21.10;86.80;;;;;;5052965;28;20048;-86
2022/08/06 11:15:40;;;;;;;5.60;1.90;;;21.30;84.90;;;;;;5052375;28;20052;-85
2022/08/06 11:18:25;;;;;;;3.42;1.60;;;21.20;86.60;;;;;;5052935;28;20032;-85
2022/08/06 11:21:37;;;;;;;4.72;1.80;;;21.20;86.00;;;;;;5052561;28;20075;-85
2022/08/06 11:24:21;;;;;;;5.60;2.00;;;21.30;85.90;;;;;;5052559;28;20114;-85
2022/08/06 11:27:44;;;;;;;4.50;1.90;;;21.30;87.10;;;;;;5039359;28;20500;-85
2022/08/06 11:30:39;;;;;;;3.42;1.90;;;21.50;88.10;;;;;;5052896;28;20039;-86
2022/08/06 11:33:32;;;;;;;2.90;1.70;;;21.70;85.40;;;;;;5038483;28;20515;-84
2022/08/06 11:36:27;;;;;;;3.20;1.70;;;22.00;86.10;;;;;;5052289;28;20543;-85
2022/08/06 11:39:12;;;;;;;3.97;1.70;;;22.30;83.90;;;;;;5040673;28;20455;-84
2022/08/06 11:42:01;;;;;;;3.65;1.95;;;22.50;83.40;;;;;;5052513;28;20167;-83
2022/08/06 11:45:01;;;;;;;3.10;2.00;;;22.70;82.00;;;;;;5052628;28;20044;-84
2022/08/06 11:48:15;;;;;;;4.10;1.77;;;22.70;81.20;;;;;;5052546;28;20453;-86
2022/08/06 11:51:38;;;;;;;4.75;1.92;;;22.60;79.80;;;;;;5048301;28;20126;-87
2022/08/06 11:54:43;;;;;;;4.35;2.05;;;22.40;81.40;;;;;;5079836;28;20166;-86
2022/08/06 11:57:27;;;;;;;2.58;1.98;;;22.30;80.90;;;;;;5042799;28;20102;-84
2022/08/06 12:00:14;;;;;;;6.80;2.38;;;22.00;80.30;;;;;;5050152;28;20087;-84
2022/08/06 12:02:59;;;;;;;4.65;1.92;;;21.90;79.60;;;;;;5051670;28;20063;-89
2022/08/06 12:05:45;;;;;;;4.13;2.00;;;21.80;81.30;;;;;;5045050;28;20061;-84
2022/08/06 12:08:29;;;;;;;3.10;2.08;;;21.70;80.50;;;;;;5051500;28;20043;-89
2022/08/06 12:11:28;;;;;;;3.35;2.22;;;21.60;80.30;;;;;;5050483;28;20540;-90
2022/08/06 12:14:41;;;;;;;4.13;1.92;;;21.60;80.10;;;;;;5051305;28;20082;-88
2022/08/06 12:17:27;;;;;;;4.70;1.90;;;21.60;80.20;;;;;;5053666;28;20113;-86
2022/08/06 12:20:12;;;;;;;4.28;2.38;;;21.60;78.20;;;;;;5051354;28;20326;-86
2022/08/06 12:22:57;;;;;;;3.65;2.20;;;21.60;78.60;;;;;;5052091;28;20074;-86
2022/08/06 12:25:47;;;;;;;7.10;2.67;;;21.70;79.10;;;;;;5050759;28;20032;-86
2022/08/06 12:28:33;;;;;;;5.38;2.70;;;21.70;79.50;;;;;;5055165;28;20036;-85
2022/08/06 12:31:32;;;;;;;3.78;2.30;;;21.80;76.70;;;;;;5044674;28;20086;-85
2022/08/06 12:34:25;;;;;;;4.95;2.42;;;21.90;77.70;;;;;;5055380;28;20444;-84
2022/08/06 12:37:09;;;;;;;5.18;2.22;;;22.20;77.80;;;;;;5055845;28;20095;-88
2022/08/06 12:43:02;;;;;;;4.75;2.45;;;22.80;76.70;;;;;;5054983;28;20094;-85
2022/08/06 12:45:47;;;;;;;11.63;3.00;;;23.00;74.90;;;;;;5054994;28;20082;-84
2022/08/06 12:48:36;;;;;;;6.65;2.63;;;22.80;74.80;;;;;;5054181;28;20036;-83
2022/08/06 12:51:20;;;;;;;6.50;2.70;;;22.60;75.20;;;;;;5041445;28;20413;-84
2022/08/06 12:54:06;;;;;;;8.30;2.75;;;22.30;75.90;;;;;;5044201;28;20052;-84
2022/08/06 12:56:51;;;;;;;27.65;5.78;;;22.00;76.00;;;;;;5054589;28;20086;-87
2022/08/06 12:59:36;;;;;;;5.80;2.95;;;21.90;77.50;;;;;;5054203;28;20103;-86
2022/08/06 13:02:22;;;;;;;7.00;2.75;;;21.70;77.70;;;;;;5055084;28;20464;-84
2022/08/06 13:05:07;;;;;;;7.18;3.20;;;21.40;77.80;;;;;;5054268;28;20549;-84
2022/08/06 13:07:54;;;;;;;8.88;2.85;;;21.30;79.20;;;;;;5055477;28;20115;-85
2022/08/06 13:10:39;;;;;;;8.13;3.30;;;21.30;78.00;;;;;;5055108;28;20091;-83
2022/08/06 13:13:41;;;;;;;4.40;2.65;;;21.30;78.10;;;;;;5054798;28;20554;-83
2022/08/06 13:16:25;;;;;;;11.18;3.88;;;21.40;78.70;;;;;;5045248;28;20100;-84
2022/08/06 13:19:12;;;;;;;5.10;3.10;;;21.80;78.60;;;;;;5054118;28;20095;-83
2022/08/06 13:22:00;;;;;;;16.73;4.57;;;22.20;78.00;;;;;;5055324;28;20043;-83
2022/08/06 13:24:45;;;;;;;7.07;2.78;;;22.40;75.40;;;;;;5044116;28;20040;-84
2022/08/06 13:27:33;;;;;;;3.60;2.53;;;22.60;74.40;;;;;;5039419;28;20044;-87
2022/08/06 13:30:18;;;;;;;34.30;5.13;;;22.90;77.50;;;;;;5053577;28;20068;-86
2022/08/06 13:33:13;;;;;;;15.65;4.35;;;23.30;74.90;;;;;;5055012;28;20048;-84
2022/08/06 13:36:06;;;;;;;3.65;2.70;;;23.60;73.80;;;;;;5053809;28;20075;-82
2022/08/06 13:38:50;;;;;;;6.15;2.60;;;23.80;72.10;;;;;;5054184;28;20044;-84
2022/08/06 13:41:34;;;;;;;4.45;2.90;;;24.00;71.40;;;;;;5053330;28;20065;-87
2022/08/06 13:44:34;;;;;;;6.45;2.80;;;24.00;69.70;;;;;;5053798;28;20048;-89
2022/08/06 13:47:27;;;;;;;5.63;2.63;;;23.70;67.50;;;;;;5053670;28;20083;-90
2022/08/06 13:50:12;;;;;;;;;;;23.20;68.50;;;;;;5053911;28;20059;-87
2022/08/06 13:52:56;;;;;;;3.67;2.03;;;22.90;70.50;;;;;;5053763;28;19975;-85
2022/08/06 13:55:44;;;;;;;3.60;2.30;;;22.90;70.10;;;;;;5053265;28;20044;-85
2022/08/06 13:58:29;;;;;;;2.92;2.10;;;22.80;70.60;;;;;;5053947;28;20389;-87
2022/08/06 14:01:13;;;;;;;3.05;2.17;;;22.70;69.70;;;;;;5053455;28;20447;-84
2022/08/06 14:03:58;;;;;;;6.13;2.75;;;22.50;69.00;;;;;;5054282;28;20090;-85
2022/08/06 14:06:42;;;;;;;4.00;2.47;;;22.30;69.30;;;;;;5054102;28;20545;-85
2022/08/06 14:09:29;;;;;;;4.13;2.53;;;22.20;70.80;;;;;;5041680;28;20079;-85
2022/08/06 14:12:13;;;;;;;4.22;2.75;;;22.10;70.70;;;;;;5054274;28;20052;-84
2022/08/06 14:14:57;;;;;;;53.83;9.05;;;21.90;71.10;;;;;;5053233;28;20124;-85
2022/08/06 14:17:43;;;;;;;17.95;4.78;;;21.80;72.90;;;;;;5052790;28;20082;-85
2022/08/06 14:20:28;;;;;;;7.00;3.30;;;21.80;73.30;;;;;;5052580;28;20047;-88
2022/08/06 14:23:13;;;;;;;5.90;3.10;;;21.70;73.60;;;;;;5054117;28;20032;-84
2022/08/06 14:25:58;;;;;;;5.72;2.92;;;21.60;74.50;;;;;;5053861;28;20527;-86
2022/08/06 14:28:42;;;;;;;4.95;2.53;;;21.90;73.80;;;;;;5052536;28;20040;-85
2022/08/06 14:31:26;;;;;;;4.13;2.75;;;22.30;73.40;;;;;;5053545;28;20472;-87
2022/08/06 14:34:10;;;;;;;4.60;2.53;;;22.60;70.90;;;;;;5053610;28;20071;-84
2022/08/06 14:36:54;;;;;;;5.00;2.90;;;22.50;70.80;;;;;;5053809;28;20048;-89
2022/08/06 14:39:39;;;;;;;29.27;6.45;;;22.40;70.70;;;;;;5050931;28;20086;-83
2022/08/06 14:45:25;;;;;;;5.13;2.88;;;22.30;71.70;;;;;;5050252;28;20098;-83
2022/08/06 14:48:10;;;;;;;4.00;2.80;;;22.60;71.80;;;;;;5037899;28;20124;-85